Time;durP1;ratioP1;P1;durP2;ratioP2;P2;SDS_P1;SDS_P2;PMS_P1;PMS_P2;Temp;Humidity;BMP_temperature;BMP_pressure;BME280_temperature;BME280_humidity;BME280_pressure;Samples;Min_cycle;Max_cycle;Signal;HPM_P1;HPM_P2
2023/03/01 00:01:47;;;;;;;;;;;20.00;32.30;;;;;;6214862;28;19946;-54
2023/03/01 00:04:49;;;;;;;;;;;19.60;32.20;;;;;;6220910;28;19934;-53
2023/03/01 00:07:52;;;;;;;;;;;20.10;32.40;;;;;;6218378;28;19922;-54
2023/03/01 00:11:02;;;;;;;;;;;20.20;30.20;;;;;;6215487;28;19929;-54
2023/03/01 00:14:04;;;;;;;;;;;19.60;32.00;;;;;;6219988;28;19921;-52
2023/03/01 00:17:06;;;;;;;;;;;20.00;32.40;;;;;;6223754;28;19922;-54
2023/03/01 00:20:09;;;;;;;;;;;20.00;32.60;;;;;;6225706;28;20013;-54
2023/03/01 00:23:11;;;;;;;;;;;19.70;32.20;;;;;;6225611;28;20014;-54
2023/03/01 00:26:13;;;;;;;;;;;20.00;32.10;;;;;;6225042;28;19929;-52
2023/03/01 00:29:15;;;;;;;;;;;19.40;32.10;;;;;;6222720;28;20008;-54
2023/03/01 00:32:17;;;;;;;;;;;19.90;32.50;;;;;;6222467;28;19921;-54
2023/03/01 00:35:18;;;;;;;;;;;20.00;32.50;;;;;;6224214;28;19978;-52
2023/03/01 00:38:19;;;;;;;;;;;20.10;32.70;;;;;;6228190;28;19921;-53
2023/03/01 00:41:22;;;;;;;;;;;20.00;32.50;;;;;;6228639;28;19928;-54
2023/03/01 00:44:23;;;;;;;;;;;19.90;32.50;;;;;;6223276;28;19945;-52
2023/03/01 00:47:25;;;;;;;;;;;19.80;32.60;;;;;;6227103;28;19956;-54
2023/03/01 00:50:27;;;;;;;;;;;19.90;32.50;;;;;;6223301;28;19929;-53
2023/03/01 00:53:28;;;;;;;;;;;19.60;32.40;;;;;;6224836;28;20423;-54
2023/03/01 00:56:30;;;;;;;;;;;20.10;32.30;;;;;;6225660;28;19921;-53
2023/03/01 00:59:32;;;;;;;;;;;19.70;33.10;;;;;;6228157;28;19921;-54
2023/03/01 01:02:34;;;;;;;;;;;19.80;32.40;;;;;;6227886;28;19921;-52
2023/03/01 01:05:36;;;;;;;;;;;19.70;32.40;;;;;;6221397;28;19928;-52
2023/03/01 01:08:37;;;;;;;;;;;19.70;32.50;;;;;;6219904;28;19922;-54
2023/03/01 01:11:38;;;;;;;;;;;20.20;32.50;;;;;;6217054;28;19925;-54
2023/03/01 01:14:40;;;;;;;;;;;19.90;32.60;;;;;;6220384;28;19922;-54
2023/03/01 01:17:42;;;;;;;;;;;20.00;33.30;;;;;;6216392;28;19922;-52
2023/03/01 01:20:43;;;;;;;;;;;19.90;32.60;;;;;;6211093;28;19922;-53
2023/03/01 01:23:45;;;;;;;;;;;19.50;32.60;;;;;;6213656;28;19953;-52
2023/03/01 01:26:46;;;;;;;;;;;19.50;32.40;;;;;;6209328;28;19922;-53
2023/03/01 01:29:48;;;;;;;;;;;19.50;32.30;;;;;;6214953;28;19921;-54
2023/03/01 01:32:50;;;;;;;;;;;19.90;32.70;;;;;;6212865;28;19922;-51
2023/03/01 01:35:51;;;;;;;;;;;19.50;32.50;;;;;;6221907;28;19922;-53
2023/03/01 01:38:52;;;;;;;;;;;19.80;32.80;;;;;;6221695;28;19921;-53
2023/03/01 01:41:54;;;;;;;;;;;20.00;32.50;;;;;;6217874;28;19944;-52
2023/03/01 01:45:11;;;;;;;;;;;19.80;32.40;;;;;;6219989;28;19921;-53
2023/03/01 01:48:16;;;;;;;;;;;19.60;32.40;;;;;;6220013;28;19946;-53
2023/03/01 01:51:18;;;;;;;;;;;19.80;32.60;;;;;;6217797;28;19929;-54
2023/03/01 01:54:22;;;;;;;;;;;19.80;32.40;;;;;;6215745;28;19949;-54
2023/03/01 01:57:25;;;;;;;;;;;19.90;32.70;;;;;;6211842;28;19953;-54
2023/03/01 02:00:28;;;;;;;;;;;19.40;32.10;;;;;;6214033;28;19976;-54
2023/03/01 02:03:33;;;;;;;;;;;19.80;32.40;;;;;;6215399;28;19921;-53
2023/03/01 02:06:37;;;;;;;;;;;19.80;32.50;;;;;;6214655;28;19921;-54
2023/03/01 02:09:38;;;;;;;;;;;19.90;32.50;;;;;;6214860;28;20386;-53
2023/03/01 02:12:39;;;;;;;;;;;20.10;32.70;;;;;;6209414;28;19921;-52
2023/03/01 02:15:43;;;;;;;;;;;19.80;32.50;;;;;;6210345;28;19922;-54
2023/03/01 02:18:45;;;;;;;;;;;19.70;32.30;;;;;;6209852;28;19949;-54
2023/03/01 02:21:51;;;;;;;;;;;19.60;32.50;;;;;;6209936;28;19921;-53
2023/03/01 02:24:57;;;;;;;;;;;19.70;32.40;;;;;;6209912;28;19922;-54
2023/03/01 02:28:03;;;;;;;;;;;19.60;32.40;;;;;;6209144;28;19925;-52
2023/03/01 02:34:25;;;;;;;;;;;19.40;32.40;;;;;;6209490;28;19925;-53
2023/03/01 02:37:28;;;;;;;;;;;19.90;32.50;;;;;;6208326;28;19926;-54
2023/03/01 02:40:30;;;;;;;;;;;19.40;32.50;;;;;;6210104;28;19921;-54
2023/03/01 02:43:33;;;;;;;;;;;19.70;32.50;;;;;;6209698;28;19922;-54
2023/03/01 02:46:42;;;;;;;;;;;19.80;32.60;;;;;;6208821;28;19934;-54
2023/03/01 02:49:43;;;;;;;;;;;19.40;32.50;;;;;;6209841;28;19945;-53
2023/03/01 02:52:47;;;;;;;;;;;19.70;32.70;;;;;;6209494;28;20337;-53
2023/03/01 02:55:49;;;;;;;;;;;19.40;32.40;;;;;;6210189;28;19951;-53
2023/03/01 02:58:51;;;;;;;;;;;19.90;32.60;;;;;;6209111;28;19928;-54
2023/03/01 03:01:54;;;;;;;;;;;19.70;32.20;;;;;;6208894;28;20016;-52
2023/03/01 03:04:55;;;;;;;;;;;19.70;33.30;;;;;;6209719;28;19921;-54
2023/03/01 03:07:58;;;;;;;;;;;19.40;32.50;;;;;;6208962;28;19929;-54
2023/03/01 03:11:00;;;;;;;;;;;19.70;32.60;;;;;;6207447;28;20282;-54
2023/03/01 03:14:01;;;;;;;;;;;19.70;32.60;;;;;;6208890;28;19921;-52
2023/03/01 03:17:06;;;;;;;;;;;19.60;32.70;;;;;;6209149;28;19922;-52
2023/03/01 03:20:11;;;;;;;;;;;19.30;32.40;;;;;;6209602;28;19944;-54
2023/03/01 03:23:12;;;;;;;;;;;19.70;32.50;;;;;;6208611;28;19926;-51
2023/03/01 03:26:14;;;;;;;;;;;19.30;32.40;;;;;;6208284;28;19922;-54
2023/03/01 03:29:16;;;;;;;;;;;19.60;32.40;;;;;;6208205;28;20305;-51
2023/03/01 03:32:18;;;;;;;;;;;19.40;32.40;;;;;;6208258;28;19972;-54
2023/03/01 03:35:20;;;;;;;;;;;19.50;32.50;;;;;;6208336;28;19997;-54
2023/03/01 03:38:21;;;;;;;;;;;19.70;32.40;;;;;;6207924;28;19922;-54
2023/03/01 03:41:23;;;;;;;;;;;19.60;32.70;;;;;;6208569;28;19937;-54
2023/03/01 03:44:24;;;;;;;;;;;19.70;32.40;;;;;;6207395;28;19922;-54
2023/03/01 03:47:26;;;;;;;;;;;19.70;32.70;;;;;;6207254;28;19972;-54
2023/03/01 03:50:27;;;;;;;;;;;19.20;32.30;;;;;;6211195;28;19921;-54
2023/03/01 03:53:29;;;;;;;;;;;19.70;33.20;;;;;;6211909;28;19926;-54
2023/03/01 03:56:30;;;;;;;;;;;19.80;32.50;;;;;;6211892;28;19922;-53
2023/03/01 03:59:32;;;;;;;;;;;19.60;32.40;;;;;;6211586;28;19922;-54
2023/03/01 04:07:03;;;;;;;;;;;19.80;30.30;;;;;;6209213;28;20010;-54
2023/03/01 04:10:06;;;;;;;;;;;19.50;32.40;;;;;;6209776;28;20378;-53
2023/03/01 04:13:09;;;;;;;;;;;19.70;32.50;;;;;;6207987;28;19980;-53
2023/03/01 04:16:10;;;;;;;;;;;19.60;32.40;;;;;;6207260;28;20271;-53
2023/03/01 04:42:10;;;;;;;;;;;19.70;30.40;;;;;;6212985;28;19914;-53
2023/03/01 04:45:13;;;;;;;;;;;19.40;32.40;;;;;;6215070;28;19922;-53
2023/03/01 04:48:15;;;;;;;;;;;19.80;32.80;;;;;;6213415;28;19977;-53
2023/03/01 05:04:57;;;;;;;;;;;19.60;30.20;;;;;;6214903;28;19925;-52
2023/03/01 05:08:00;;;;;;;;;;;19.70;32.70;;;;;;6213657;28;20349;-54
2023/03/01 05:15:36;;;;;;;;;;;19.70;30.30;;;;;;6214988;28;19914;-53
2023/03/01 05:18:37;;;;;;;;;;;19.40;32.40;;;;;;6213945;28;19929;-53
2023/03/01 05:22:01;;;;;;;;;;;19.40;32.20;;;;;;6213333;28;19925;-54
2023/03/01 05:25:01;;;;;;;;;;;19.20;32.30;;;;;;6212612;28;19944;-53
2023/03/01 05:28:04;;;;;;;;;;;19.50;32.50;;;;;;6212962;28;20005;-54
2023/03/01 05:31:09;;;;;;;;;;;19.60;32.40;;;;;;6214055;28;19922;-53
2023/03/01 05:34:12;;;;;;;;;;;19.20;32.10;;;;;;6212964;28;19926;-54
2023/03/01 05:40:56;;;;;;;;;;;19.50;32.40;;;;;;6212403;28;19937;-51
2023/03/01 05:43:58;;;;;;;;;;;19.60;30.10;;;;;;6212539;28;19928;-53
2023/03/01 05:51:29;;;;;;;;;;;19.60;30.10;;;;;;6214717;28;19914;-54
2023/03/01 05:59:00;;;;;;;;;;;19.60;30.20;;;;;;6214058;28;19914;-54
2023/03/01 06:02:01;;;;;;;;;;;19.60;32.50;;;;;;6213971;28;19922;-54
2023/03/01 06:05:02;;;;;;;;;;;19.30;32.40;;;;;;6215218;28;19944;-51
2023/03/01 06:08:04;;;;;;;;;;;19.60;32.50;;;;;;6214230;28;19922;-53
2023/03/01 06:11:06;;;;;;;;;;;19.20;32.40;;;;;;6213669;28;19921;-51
2023/03/01 06:14:10;;;;;;;;;;;19.70;32.50;;;;;;6214397;28;19922;-54
2023/03/01 06:17:11;;;;;;;;;;;19.20;32.20;;;;;;6212616;28;19922;-54
2023/03/01 06:20:14;;;;;;;;;;;19.50;32.50;;;;;;6211104;28;19929;-54
2023/03/01 06:23:15;;;;;;;;;;;19.30;32.10;;;;;;6211253;28;19928;-54
2023/03/01 06:26:17;;;;;;;;;;;19.10;32.30;;;;;;6210184;28;19961;-53
2023/03/01 06:29:19;;;;;;;;;;;19.50;32.50;;;;;;6207120;28;19948;-55
2023/03/01 06:32:21;;;;;;;;;;;19.70;32.40;;;;;;6207531;28;20317;-54
2023/03/01 06:35:22;;;;;;;;;;;19.50;32.40;;;;;;6206895;28;19921;-53
2023/03/01 06:38:23;;;;;;;;;;;19.20;32.30;;;;;;6210902;28;19928;-55
2023/03/01 06:41:25;;;;;;;;;;;19.50;32.50;;;;;;6211323;28;19929;-50
2023/03/01 06:44:28;;;;;;;;;;;19.90;32.60;;;;;;6209895;28;19921;-52
2023/03/01 06:47:29;;;;;;;;;;;19.20;32.30;;;;;;6211444;28;20294;-54
2023/03/01 06:50:30;;;;;;;;;;;19.60;32.40;;;;;;6210853;28;19921;-54
2023/03/01 06:53:31;;;;;;;;;;;19.30;32.20;;;;;;6210360;28;20012;-54
2023/03/01 06:56:33;;;;;;;;;;;19.70;33.10;;;;;;6210779;28;19921;-54
2023/03/01 07:04:10;;;;;;;;;;;19.60;30.00;;;;;;6209858;28;19918;-52
2023/03/01 07:07:11;;;;;;;;;;;19.90;32.30;;;;;;6209053;28;20297;-53
2023/03/01 07:10:13;;;;;;;;;;;19.50;32.20;;;;;;6212043;28;19921;-53
2023/03/01 07:13:14;;;;;;;;;;;19.70;32.20;;;;;;6211858;28;19930;-53
2023/03/01 07:16:15;;;;;;;;;;;19.60;32.00;;;;;;6210967;28;19921;-54
2023/03/01 07:19:17;;;;;;;;;;;19.80;31.70;;;;;;6212529;28;19921;-54
2023/03/01 07:22:19;;;;;;;;;;;19.60;31.90;;;;;;6212554;28;19932;-54
2023/03/01 07:25:20;;;;;;;;;;;20.00;32.00;;;;;;6218066;28;19928;-54
2023/03/01 07:28:22;;;;;;;;;;;19.70;31.60;;;;;;6217351;28;19921;-54
2023/03/01 07:31:23;;;;;;;;;;;19.90;31.60;;;;;;6218147;28;19922;-53
2023/03/01 07:34:25;;;;;;;;;;;19.50;31.10;;;;;;6217980;28;19921;-54
2023/03/01 07:37:27;;;;;;;;;;;19.90;31.50;;;;;;6217376;28;19921;-53
2023/03/01 07:40:28;;;;;;;;;;;19.60;31.30;;;;;;6216977;28;19937;-54
2023/03/01 07:43:30;;;;;;;;;;;20.10;31.50;;;;;;6214783;28;20418;-54
2023/03/01 07:46:31;;;;;;;;;;;20.00;31.20;;;;;;6218174;28;19928;-54
2023/03/01 07:49:34;;;;;;;;;;;20.20;31.40;;;;;;6212621;28;19925;-53
2023/03/01 07:52:35;;;;;;;;;;;19.70;31.20;;;;;;6220759;28;19970;-52
2023/03/01 07:55:36;;;;;;;;;;;20.00;31.10;;;;;;6209301;28;19922;-51
2023/03/01 07:58:39;;;;;;;;;;;19.60;30.60;;;;;;6217662;28;19929;-56
2023/03/01 08:01:40;;;;;;;;;;;20.10;31.10;;;;;;6225928;28;19926;-52
2023/03/01 08:04:42;;;;;;;;;;;20.10;31.00;;;;;;6232870;28;19922;-49
2023/03/01 08:07:43;;;;;;;;;;;20.20;30.60;;;;;;6231505;28;19913;-53
2023/03/01 08:10:45;;;;;;;;;;;20.20;30.70;;;;;;6230892;28;19922;-51
2023/03/01 08:13:47;;;;;;;;;;;20.30;31.00;;;;;;6231430;28;19922;-51
2023/03/01 08:16:52;;;;;;;;;;;19.90;30.50;;;;;;6223411;28;19928;-49
2023/03/01 08:19:54;;;;;;;;;;;20.20;30.80;;;;;;6209940;28;20028;-51
2023/03/01 08:22:57;;;;;;;;;;;19.90;30.60;;;;;;6204035;28;20333;-54
2023/03/01 08:26:07;;;;;;;;;;;20.40;30.60;;;;;;6202571;28;19956;-51
2023/03/01 08:29:08;;;;;;;;;;;20.00;30.40;;;;;;6204061;28;20349;-53
2023/03/01 08:32:09;;;;;;;;;;;20.40;30.70;;;;;;6215440;28;19913;-48
2023/03/01 08:35:12;;;;;;;;;;;20.40;30.50;;;;;;6227894;28;19960;-48
2023/03/01 08:38:13;;;;;;;;;;;20.50;30.40;;;;;;6230956;28;19944;-48
2023/03/01 08:41:14;;;;;;;;;;;20.40;30.40;;;;;;6230750;28;19905;-49
2023/03/01 08:44:16;;;;;;;;;;;20.60;30.60;;;;;;6321681;23;19992;-46
2023/03/01 08:47:18;;;;;;;;;;;20.30;30.30;;;;;;6277676;28;19916;-48
2023/03/01 08:50:20;;;;;;;;;;;20.60;30.50;;;;;;6801927;22;19927;-47
2023/03/01 08:53:22;;;;;;;;;;;20.70;29.60;;;;;;6279426;28;19948;-50
2023/03/01 09:03:10;;;;;;;;;;;20.40;28.70;;;;;;6250672;28;19964;-52
2023/03/01 09:23:47;;;;;;;;;;;20.80;28.70;;;;;;6577551;22;19951;-48
2023/03/01 09:30:13;;;;;;;;;;;20.80;28.80;;;;;;7006138;22;19904;-50
2023/03/01 09:36:39;;;;;;;;;;;20.90;28.60;;;;;;7107349;22;19920;-48
2023/03/01 09:39:41;;;;;;;;;;;21.00;28.60;;;;;;6328440;28;19911;-50
2023/03/01 09:56:53;;;;;;;;;;;21.10;28.60;;;;;;7581475;22;19912;-51
2023/03/01 10:00:00;;;;;;;;;;;21.00;29.20;;;;;;6329768;28;19915;-51
2023/03/01 10:03:09;;;;;;;;;;;21.00;29.90;;;;;;6329191;28;19904;-52
2023/03/01 10:06:13;;;;;;;;;;;21.10;30.00;;;;;;6329308;28;19926;-49
2023/03/01 10:09:34;;;;;;;;;;;20.80;29.80;;;;;;6329601;28;19972;-50
2023/03/01 10:26:39;;;;;;;;;;;21.00;28.60;;;;;;7024808;22;19956;-51
2023/03/01 10:29:46;;;;;;;;;;;21.20;29.20;;;;;;6303990;28;19928;-51
2023/03/01 10:49:21;;;;;;;;;;;21.30;28.50;;;;;;6328005;28;19916;-53
2023/03/01 10:52:24;;;;;;;;;;;21.20;29.20;;;;;;6311006;28;19924;-52
2023/03/01 10:55:28;;;;;;;;;;;21.30;29.90;;;;;;6327759;28;19920;-49
2023/03/01 11:05:19;;;;;;;;;;;20.90;28.30;;;;;;6276033;28;19927;-50
2023/03/01 11:08:30;;;;;;;;;;;21.20;29.60;;;;;;6260680;28;19921;-52
2023/03/01 11:11:36;;;;;;;;;;;21.20;29.60;;;;;;6274704;28;19921;-52
2023/03/01 11:19:18;;;;;;;;;;;21.20;28.30;;;;;;6272977;28;19909;-51
2023/03/01 11:22:20;;;;;;;;;;;20.90;29.50;;;;;;6272348;28;20377;-51
2023/03/01 11:25:24;;;;;;;;;;;21.30;29.70;;;;;;6271985;28;19950;-51
2023/03/01 11:28:27;;;;;;;;;;;21.10;29.50;;;;;;6252845;28;19944;-52
2023/03/01 11:31:30;;;;;;;;;;;21.50;29.70;;;;;;6241141;28;19921;-49
2023/03/01 11:34:37;;;;;;;;;;;21.10;29.60;;;;;;6255664;28;20329;-49
2023/03/01 11:37:41;;;;;;;;;;;21.60;29.70;;;;;;6248856;28;20288;-50
2023/03/01 11:40:48;;;;;;;;;;;21.00;29.50;;;;;;6250033;28;19921;-47
2023/03/01 11:43:52;;;;;;;;;;;21.40;29.70;;;;;;6232752;28;19928;-48
2023/03/01 11:47:09;;;;;;;;;;;21.00;29.50;;;;;;6233241;28;19968;-50
2023/03/01 11:50:15;;;;;;;;;;;21.40;28.80;;;;;;6249816;28;20369;-50
2023/03/01 11:53:24;;;;;;;;;;;21.00;29.30;;;;;;6232082;28;19932;-52
2023/03/01 11:56:29;;;;;;;;;;;21.50;29.70;;;;;;6250648;28;20277;-52
2023/03/01 11:59:45;;;;;;;;;;;21.20;29.40;;;;;;6249240;28;19928;-52
2023/03/01 12:02:56;;;;;;;;;;;21.00;29.40;;;;;;6249037;28;19928;-50
2023/03/01 12:06:05;;;;;;;;;;;21.00;29.40;;;;;;6248346;28;19921;-50
2023/03/01 12:09:15;;;;;;;;;;;21.50;29.60;;;;;;6249195;28;20388;-52
2023/03/01 12:12:26;;;;;;;;;;;21.20;29.40;;;;;;6252239;28;19925;-50
2023/03/01 12:15:33;;;;;;;;;;;21.50;29.50;;;;;;6252591;28;19925;-50
2023/03/01 12:18:41;;;;;;;;;;;21.40;29.40;;;;;;6252136;28;19972;-51
2023/03/01 12:21:49;;;;;;;;;;;21.10;29.30;;;;;;6252634;28;19976;-51
2023/03/01 12:24:58;;;;;;;;;;;21.00;29.30;;;;;;6251945;28;20291;-51
2023/03/01 12:28:09;;;;;;;;;;;21.50;29.50;;;;;;6251702;28;20367;-50
2023/03/01 12:31:25;;;;;;;;;;;21.20;29.30;;;;;;6251417;28;20431;-45
2023/03/01 12:34:34;;;;;;;;;;;21.50;29.40;;;;;;6251976;28;19944;-50
2023/03/01 12:37:42;;;;;;;;;;;21.00;29.20;;;;;;6251709;28;20288;-49
2023/03/01 12:40:52;;;;;;;;;;;21.60;29.40;;;;;;6235793;28;19943;-51
2023/03/01 12:44:01;;;;;;;;;;;21.20;29.20;;;;;;6250989;28;20361;-51
2023/03/01 12:47:11;;;;;;;;;;;21.50;29.40;;;;;;6233925;28;19944;-51
2023/03/01 12:50:17;;;;;;;;;;;21.00;29.20;;;;;;6250148;28;19971;-53
2023/03/01 12:53:22;;;;;;;;;;;21.50;29.30;;;;;;6262717;28;19925;-50
2023/03/01 12:56:25;;;;;;;;;;;21.50;29.30;;;;;;6269469;28;19991;-52
2023/03/01 12:59:36;;;;;;;;;;;21.60;29.40;;;;;;6275043;28;19945;-52
2023/03/01 13:02:41;;;;;;;;;;;21.20;29.20;;;;;;6265457;28;19925;-52
2023/03/01 13:16:30;;;;;;;;;;;21.30;28.20;;;;;;6422819;22;19960;-50
2023/03/01 13:19:35;;;;;;;;;;;21.50;28.90;;;;;;6308487;22;19920;-52
2023/03/01 13:22:36;;;;;;;;;;;21.50;29.40;;;;;;6264271;28;20317;-52
2023/03/01 13:26:11;;;;;;;;;;;21.40;29.30;;;;;;6254543;28;19967;-47
2023/03/01 13:29:25;;;;;;;;;;;21.40;29.20;;;;;;6260704;28;19944;-52
2023/03/01 13:32:28;;;;;;;;;;;21.50;29.20;;;;;;6279386;28;19924;-51
2023/03/01 13:35:44;;;;;;;;;;;21.50;29.30;;;;;;6278127;28;19927;-49
2023/03/01 13:38:47;;;;;;;;;;;21.30;29.20;;;;;;6311091;28;19928;-48
2023/03/01 13:41:50;;;;;;;;;;;21.60;29.20;;;;;;6315427;28;19920;-52
2023/03/01 13:44:53;;;;;;;;;;;21.50;29.20;;;;;;6298980;28;19931;-49
2023/03/01 13:47:58;;;;;;;;;;;21.50;29.30;;;;;;6317203;28;19920;-49
2023/03/01 13:51:02;;;;;;;;;;;21.40;29.20;;;;;;6318697;28;19920;-51
2023/03/01 13:54:11;;;;;;;;;;;21.60;29.30;;;;;;6287522;28;19921;-50
2023/03/01 13:57:20;;;;;;;;;;;21.80;29.40;;;;;;6304943;28;19942;-49
2023/03/01 14:00:26;;;;;;;;;;;21.60;29.30;;;;;;6322335;28;19921;-50
2023/03/01 14:03:29;;;;;;;;;;;21.50;29.30;;;;;;6319802;28;19928;-50
2023/03/01 14:06:35;;;;;;;;;;;21.50;29.30;;;;;;6318973;28;19921;-50
2023/03/01 14:09:39;;;;;;;;;;;21.50;29.30;;;;;;6303646;28;19932;-52
2023/03/01 14:12:45;;;;;;;;;;;21.60;29.30;;;;;;6320668;28;19911;-51
2023/03/01 14:15:50;;;;;;;;;;;21.50;29.20;;;;;;6322695;28;19931;-47
2023/03/01 14:18:55;;;;;;;;;;;21.50;29.20;;;;;;6305146;28;19921;-48
2023/03/01 14:22:04;;;;;;;;;;;21.40;29.10;;;;;;6322281;28;19921;-47
2023/03/01 14:25:16;;;;;;;;;;;21.80;29.20;;;;;;6311879;28;19920;-51
2023/03/01 14:28:18;;;;;;;;;;;21.40;29.20;;;;;;6321067;28;19925;-51
2023/03/01 14:31:30;;;;;;;;;;;21.70;29.30;;;;;;6320631;28;19920;-48
2023/03/01 14:34:42;;;;;;;;;;;21.10;29.10;;;;;;6314703;28;19924;-52
2023/03/01 14:37:46;;;;;;;;;;;21.70;28.20;;;;;;6311685;28;19969;-49
2023/03/01 14:40:51;;;;;;;;;;;21.30;29.20;;;;;;6323363;28;19924;-55
2023/03/01 14:43:57;;;;;;;;;;;21.60;29.30;;;;;;6787183;22;19982;-52
2023/03/01 14:47:01;;;;;;;;;;;21.20;28.60;;;;;;6300043;28;19930;-55
2023/03/01 14:59:09;;;;;;;;;;;21.50;28.10;;;;;;6321694;28;19912;-53
2023/03/01 15:02:16;;;;;;;;;;;21.40;29.10;;;;;;6321328;28;19964;-55
2023/03/01 15:05:22;;;;;;;;;;;21.40;29.10;;;;;;6310419;28;20067;-55
2023/03/01 15:08:32;;;;;;;;;;;21.50;29.20;;;;;;6302415;28;20287;-51
2023/03/01 15:11:36;;;;;;;;;;;21.60;29.20;;;;;;6298711;28;19978;-55
2023/03/01 15:14:41;;;;;;;;;;;21.60;29.20;;;;;;6307669;28;19927;-48
2023/03/01 15:17:42;;;;;;;;;;;21.60;29.00;;;;;;6307796;28;19911;-52
2023/03/01 15:20:44;;;;;;;;;;;21.20;29.00;;;;;;6327549;28;19919;-52
2023/03/01 15:23:48;;;;;;;;;;;21.60;29.10;;;;;;6325775;28;19920;-53
2023/03/01 15:26:55;;;;;;;;;;;21.50;29.00;;;;;;6327299;28;19920;-53
2023/03/01 15:29:58;;;;;;;;;;;21.60;29.10;;;;;;6317867;28;19927;-52
2023/03/01 15:33:19;;;;;;;;;;;21.30;29.10;;;;;;6320413;28;19924;-51
2023/03/01 15:39:53;;;;;;;;;;;21.40;28.30;;;;;;6543553;22;19905;-53
2023/03/01 15:42:56;;;;;;;;;;;21.60;28.80;;;;;;6296268;28;19928;-50
2023/03/01 15:45:58;;;;;;;;;;;21.50;29.40;;;;;;6296287;28;19935;-51
2023/03/01 15:49:01;;;;;;;;;;;21.20;29.20;;;;;;6280138;28;20257;-53
2023/03/01 15:52:03;;;;;;;;;;;21.60;29.20;;;;;;6293662;28;19972;-54
2023/03/01 15:55:05;;;;;;;;;;;21.60;29.20;;;;;;6569289;22;19909;-50
2023/03/01 15:58:10;;;;;;;;;;;21.60;29.10;;;;;;6278423;28;19955;-53
2023/03/01 16:01:14;;;;;;;;;;;21.60;29.00;;;;;;6297668;28;19908;-51
2023/03/01 16:07:27;;;;;;;;;;;21.50;28.20;;;;;;6265736;28;19970;-52
2023/03/01 16:10:31;;;;;;;;;;;21.50;29.00;;;;;;6272458;28;19944;-50
2023/03/01 16:13:32;;;;;;;;;;;21.60;29.00;;;;;;6248411;28;19948;-52
2023/03/01 16:16:35;;;;;;;;;;;21.70;29.10;;;;;;6248774;28;19921;-51
2023/03/01 16:19:37;;;;;;;;;;;21.80;29.20;;;;;;6245598;28;19928;-50
2023/03/01 16:22:38;;;;;;;;;;;21.40;28.90;;;;;;6240917;28;19921;-51
2023/03/01 16:25:40;;;;;;;;;;;21.80;29.10;;;;;;6238132;28;20392;-48
2023/03/01 16:28:42;;;;;;;;;;;21.60;29.00;;;;;;6233794;28;19925;-52
2023/03/01 16:31:44;;;;;;;;;;;21.70;29.10;;;;;;6230342;28;19928;-52
2023/03/01 16:34:48;;;;;;;;;;;21.80;29.00;;;;;;6230353;28;19925;-53
2023/03/01 16:37:52;;;;;;;;;;;21.90;29.00;;;;;;6242142;28;19921;-51
2023/03/01 16:40:53;;;;;;;;;;;21.70;29.00;;;;;;6250139;28;19922;-52
2023/03/01 16:43:54;;;;;;;;;;;21.80;29.00;;;;;;6241690;28;19921;-49
2023/03/01 16:46:56;;;;;;;;;;;21.80;29.00;;;;;;6246108;28;19921;-51
2023/03/01 16:49:58;;;;;;;;;;;21.80;28.90;;;;;;6243643;28;19997;-53
2023/03/01 16:52:59;;;;;;;;;;;21.80;28.90;;;;;;6239424;28;20012;-54
2023/03/01 16:56:01;;;;;;;;;;;22.00;29.50;;;;;;6239424;28;19983;-50
2023/03/01 16:59:02;;;;;;;;;;;21.80;28.80;;;;;;6240009;28;19925;-53
2023/03/01 17:02:10;;;;;;;;;;;22.00;28.90;;;;;;6238217;28;20335;-51
2023/03/01 17:05:12;;;;;;;;;;;21.80;28.80;;;;;;6237632;28;19921;-52
2023/03/01 17:08:13;;;;;;;;;;;22.00;28.90;;;;;;6237281;28;19922;-52
2023/03/01 17:11:16;;;;;;;;;;;21.80;28.80;;;;;;6238821;28;19972;-51
2023/03/01 17:14:17;;;;;;;;;;;21.80;28.80;;;;;;6220121;28;19921;-53
2023/03/01 17:17:21;;;;;;;;;;;21.50;28.80;;;;;;6238891;28;19921;-52
2023/03/01 17:20:23;;;;;;;;;;;21.80;28.90;;;;;;6243037;28;19932;-51
2023/03/01 17:23:24;;;;;;;;;;;21.50;28.80;;;;;;6242102;28;19925;-53
2023/03/01 17:26:28;;;;;;;;;;;21.90;29.00;;;;;;6241002;28;19927;-54
2023/03/01 17:29:29;;;;;;;;;;;21.60;28.80;;;;;;6232817;28;19921;-51
2023/03/01 17:32:31;;;;;;;;;;;21.90;28.90;;;;;;6230502;28;19925;-52
2023/03/01 17:35:36;;;;;;;;;;;21.90;29.00;;;;;;6233425;28;19947;-51
2023/03/01 17:38:38;;;;;;;;;;;22.00;29.00;;;;;;6239402;28;19921;-53
2023/03/01 17:41:39;;;;;;;;;;;21.50;28.70;;;;;;6234830;28;19921;-51
2023/03/01 17:44:40;;;;;;;;;;;21.50;28.90;;;;;;6228083;28;20292;-53
2023/03/01 17:47:44;;;;;;;;;;;21.90;29.00;;;;;;6228263;28;19928;-48
2023/03/01 17:50:45;;;;;;;;;;;22.00;29.00;;;;;;6229423;28;19933;-53
2023/03/01 17:53:47;;;;;;;;;;;21.60;28.90;;;;;;6232380;28;20365;-52
2023/03/01 17:56:48;;;;;;;;;;;21.90;29.00;;;;;;6237253;28;19921;-50
2023/03/01 17:59:51;;;;;;;;;;;21.90;29.00;;;;;;6249453;28;20370;-50
2023/03/01 18:02:53;;;;;;;;;;;22.00;29.10;;;;;;6242860;28;19940;-50
2023/03/01 18:05:54;;;;;;;;;;;21.80;29.00;;;;;;6240232;28;19921;-53
2023/03/01 18:08:57;;;;;;;;;;;22.10;29.20;;;;;;6240215;28;19909;-52
2023/03/01 18:11:59;;;;;;;;;;;22.00;29.20;;;;;;6238361;28;19925;-51
2023/03/01 18:15:00;;;;;;;;;;;22.10;29.00;;;;;;6247162;28;19921;-53
2023/03/01 18:18:02;;;;;;;;;;;21.50;28.90;;;;;;6249161;28;19976;-52
2023/03/01 18:21:04;;;;;;;;;;;22.00;29.20;;;;;;6244253;28;19929;-48
2023/03/01 18:24:06;;;;;;;;;;;21.70;29.10;;;;;;6250389;28;19945;-50
2023/03/01 18:27:09;;;;;;;;;;;21.90;29.30;;;;;;6251136;28;19906;-50
2023/03/01 18:30:11;;;;;;;;;;;21.80;29.20;;;;;;6230276;28;19921;-51
2023/03/01 18:33:13;;;;;;;;;;;21.80;29.20;;;;;;6228741;28;19926;-51
2023/03/01 18:36:16;;;;;;;;;;;21.40;29.10;;;;;;6244108;28;19921;-52
2023/03/01 18:39:19;;;;;;;;;;;22.00;29.20;;;;;;6247776;28;19984;-51
2023/03/01 18:42:22;;;;;;;;;;;21.80;29.20;;;;;;6240892;28;20069;-50
2023/03/01 18:45:23;;;;;;;;;;;21.80;29.40;;;;;;6246163;28;19928;-51
2023/03/01 18:48:25;;;;;;;;;;;21.80;29.30;;;;;;6244738;28;19921;-50
2023/03/01 18:51:27;;;;;;;;;;;21.80;29.40;;;;;;6249111;28;19921;-52
2023/03/01 18:54:29;;;;;;;;;;;21.50;29.30;;;;;;6249338;28;20006;-52
2023/03/01 18:57:31;;;;;;;;;;;21.80;29.50;;;;;;6249657;28;19921;-52
2023/03/01 19:00:33;;;;;;;;;;;21.30;29.40;;;;;;6249878;28;19949;-52
2023/03/01 19:03:35;;;;;;;;;;;21.70;29.50;;;;;;6249820;28;19921;-51
2023/03/01 19:06:37;;;;;;;;;;;21.50;29.50;;;;;;6249912;28;19932;-53
2023/03/01 19:09:39;;;;;;;;;;;21.40;29.40;;;;;;6232695;28;19921;-49
2023/03/01 19:12:40;;;;;;;;;;;21.50;29.50;;;;;;6232363;28;19949;-53
2023/03/01 19:15:42;;;;;;;;;;;21.70;29.60;;;;;;6249579;28;19998;-53
2023/03/01 19:18:49;;;;;;;;;;;21.40;29.50;;;;;;6248797;28;19976;-52
2023/03/01 19:21:52;;;;;;;;;;;21.60;29.70;;;;;;6237087;28;19985;-52
2023/03/01 19:25:07;;;;;;;;;;;21.50;29.70;;;;;;6251606;28;19921;-51
2023/03/01 19:28:08;;;;;;;;;;;21.70;29.70;;;;;;6252178;28;19921;-52
2023/03/01 19:31:10;;;;;;;;;;;21.50;29.80;;;;;;6252344;28;19922;-51
2023/03/01 19:34:14;;;;;;;;;;;21.10;29.50;;;;;;6247009;28;19922;-50
2023/03/01 19:37:15;;;;;;;;;;;21.40;29.80;;;;;;6241195;28;19928;-50
2023/03/01 19:40:16;;;;;;;;;;;21.20;29.70;;;;;;6240038;28;19929;-51
2023/03/01 19:43:18;;;;;;;;;;;21.50;29.80;;;;;;6241048;28;19922;-53
2023/03/01 19:46:21;;;;;;;;;;;21.00;29.60;;;;;;6223984;28;20020;-53
2023/03/01 19:49:23;;;;;;;;;;;21.20;29.90;;;;;;6243678;28;20589;-51
2023/03/01 19:52:24;;;;;;;;;;;21.40;29.90;;;;;;6244175;28;19921;-52
2023/03/01 19:55:25;;;;;;;;;;;21.30;29.90;;;;;;6246454;28;20017;-53
2023/03/01 19:58:27;;;;;;;;;;;21.30;29.90;;;;;;6245374;28;19988;-51
2023/03/01 20:01:30;;;;;;;;;;;21.00;29.80;;;;;;6228602;28;19921;-53
2023/03/01 20:04:33;;;;;;;;;;;21.30;30.00;;;;;;6245371;28;19922;-51
2023/03/01 20:07:34;;;;;;;;;;;21.10;30.00;;;;;;6247277;28;19921;-52
2023/03/01 20:10:35;;;;;;;;;;;21.30;30.00;;;;;;6245936;28;19928;-53
2023/03/01 20:13:37;;;;;;;;;;;21.20;30.00;;;;;;6246800;28;19930;-51
2023/03/01 20:16:38;;;;;;;;;;;21.30;30.00;;;;;;6246617;28;20448;-53
2023/03/01 20:19:40;;;;;;;;;;;20.70;29.80;;;;;;6246570;28;19929;-53
2023/03/01 20:22:42;;;;;;;;;;;20.80;30.00;;;;;;6247687;28;20230;-53
2023/03/01 20:25:44;;;;;;;;;;;20.70;30.00;;;;;;6248666;28;19925;-51
2023/03/01 20:28:45;;;;;;;;;;;21.40;30.20;;;;;;6228194;28;19945;-52
2023/03/01 20:31:47;;;;;;;;;;;20.80;30.00;;;;;;6244769;28;19921;-51
2023/03/01 20:34:49;;;;;;;;;;;21.10;30.10;;;;;;6245213;28;19944;-51
2023/03/01 20:37:51;;;;;;;;;;;20.60;30.00;;;;;;6249750;28;19921;-53
2023/03/01 20:40:56;;;;;;;;;;;21.00;30.10;;;;;;6250117;28;20312;-52
2023/03/01 20:43:59;;;;;;;;;;;21.10;30.10;;;;;;6248144;28;19921;-53
2023/03/01 20:47:00;;;;;;;;;;;20.70;30.10;;;;;;6249192;28;19997;-53